sensor_id;sensor_type;location;lat;lon;timestamp;P1;durP1;ratioP1;P2;durP2;ratioP2
55090;SDS011;40985;53.180;5.800;2023-05-07T00:02:06;23.73;;;20.75;;
55090;SDS011;40985;53.180;5.800;2023-05-07T00:04:32;24.73;;;19.88;;
55090;SDS011;40985;53.180;5.800;2023-05-07T00:07:02;20.90;;;18.70;;
55090;SDS011;40985;53.180;5.800;2023-05-07T00:09:28;22.05;;;19.73;;
55090;SDS011;40985;53.180;5.800;2023-05-07T00:11:53;23.33;;;20.45;;
55090;SDS011;40985;53.180;5.800;2023-05-07T00:14:19;24.25;;;21.40;;
55090;SDS011;40985;53.180;5.800;2023-05-07T00:16:45;23.20;;;20.75;;
55090;SDS011;40985;53.180;5.800;2023-05-07T00:19:10;24.50;;;20.95;;
55090;SDS011;40985;53.180;5.800;2023-05-07T00:21:36;23.20;;;20.67;;
55090;SDS011;40985;53.180;5.800;2023-05-07T00:24:02;22.70;;;20.08;;
55090;SDS011;40985;53.180;5.800;2023-05-07T00:26:28;21.88;;;19.67;;
55090;SDS011;40985;53.180;5.800;2023-05-07T00:28:54;23.30;;;20.42;;
55090;SDS011;40985;53.180;5.800;2023-05-07T00:31:19;21.75;;;18.92;;
55090;SDS011;40985;53.180;5.800;2023-05-07T00:33:45;25.17;;;21.35;;
55090;SDS011;40985;53.180;5.800;2023-05-07T00:36:11;22.77;;;20.38;;
55090;SDS011;40985;53.180;5.800;2023-05-07T00:38:37;24.05;;;20.70;;
55090;SDS011;40985;53.180;5.800;2023-05-07T00:41:02;24.05;;;21.48;;
55090;SDS011;40985;53.180;5.800;2023-05-07T00:43:28;23.00;;;20.38;;
55090;SDS011;40985;53.180;5.800;2023-05-07T00:45:54;26.30;;;21.15;;
55090;SDS011;40985;53.180;5.800;2023-05-07T00:48:20;24.38;;;21.30;;
55090;SDS011;40985;53.180;5.800;2023-05-07T00:50:46;24.25;;;20.70;;
55090;SDS011;40985;53.180;5.800;2023-05-07T00:53:13;24.92;;;21.10;;
55090;SDS011;40985;53.180;5.800;2023-05-07T00:55:39;22.75;;;20.45;;
55090;SDS011;40985;53.180;5.800;2023-05-07T00:58:05;22.30;;;19.90;;
55090;SDS011;40985;53.180;5.800;2023-05-07T01:00:31;23.40;;;20.60;;
55090;SDS011;40985;53.180;5.800;2023-05-07T01:02:57;23.83;;;20.75;;
55090;SDS011;40985;53.180;5.800;2023-05-07T01:05:23;27.25;;;22.08;;
55090;SDS011;40985;53.180;5.800;2023-05-07T01:07:50;25.30;;;21.15;;
55090;SDS011;40985;53.180;5.800;2023-05-07T01:10:18;27.10;;;21.13;;
55090;SDS011;40985;53.180;5.800;2023-05-07T01:12:44;22.17;;;19.77;;
55090;SDS011;40985;53.180;5.800;2023-05-07T01:15:12;25.55;;;21.67;;
55090;SDS011;40985;53.180;5.800;2023-05-07T01:17:39;27.20;;;20.15;;
55090;SDS011;40985;53.180;5.800;2023-05-07T01:20:06;24.65;;;19.92;;
55090;SDS011;40985;53.180;5.800;2023-05-07T01:22:33;24.33;;;20.42;;
55090;SDS011;40985;53.180;5.800;2023-05-07T01:25:01;24.35;;;20.10;;
55090;SDS011;40985;53.180;5.800;2023-05-07T01:27:31;25.65;;;21.38;;
55090;SDS011;40985;53.180;5.800;2023-05-07T01:29:58;28.73;;;20.70;;
55090;SDS011;40985;53.180;5.800;2023-05-07T01:35:05;23.95;;;20.60;;
55090;SDS011;40985;53.180;5.800;2023-05-07T01:37:35;23.67;;;19.23;;
55090;SDS011;40985;53.180;5.800;2023-05-07T01:40:01;22.92;;;20.23;;
55090;SDS011;40985;53.180;5.800;2023-05-07T01:42:28;21.00;;;18.80;;
55090;SDS011;40985;53.180;5.800;2023-05-07T01:44:54;22.63;;;20.20;;
55090;SDS011;40985;53.180;5.800;2023-05-07T01:47:20;24.83;;;20.83;;
55090;SDS011;40985;53.180;5.800;2023-05-07T01:49:47;25.52;;;21.50;;
55090;SDS011;40985;53.180;5.800;2023-05-07T01:52:13;27.00;;;21.58;;
55090;SDS011;40985;53.180;5.800;2023-05-07T01:54:39;26.67;;;21.35;;
55090;SDS011;40985;53.180;5.800;2023-05-07T01:57:04;25.00;;;21.60;;
55090;SDS011;40985;53.180;5.800;2023-05-07T01:59:30;28.85;;;22.90;;
55090;SDS011;40985;53.180;5.800;2023-05-07T02:01:56;29.70;;;22.73;;
55090;SDS011;40985;53.180;5.800;2023-05-07T02:04:21;29.40;;;23.50;;
55090;SDS011;40985;53.180;5.800;2023-05-07T02:06:47;31.38;;;24.50;;
55090;SDS011;40985;53.180;5.800;2023-05-07T02:09:13;30.02;;;24.02;;
55090;SDS011;40985;53.180;5.800;2023-05-07T02:11:39;28.58;;;23.67;;
55090;SDS011;40985;53.180;5.800;2023-05-07T02:14:05;32.08;;;26.23;;
55090;SDS011;40985;53.180;5.800;2023-05-07T02:16:31;31.63;;;25.13;;
55090;SDS011;40985;53.180;5.800;2023-05-07T02:18:57;29.15;;;23.70;;
55090;SDS011;40985;53.180;5.800;2023-05-07T02:21:23;30.27;;;25.75;;
55090;SDS011;40985;53.180;5.800;2023-05-07T02:23:50;32.33;;;26.85;;
55090;SDS011;40985;53.180;5.800;2023-05-07T02:26:15;32.55;;;26.50;;
55090;SDS011;40985;53.180;5.800;2023-05-07T02:28:41;30.55;;;26.88;;
55090;SDS011;40985;53.180;5.800;2023-05-07T02:31:07;36.15;;;27.85;;
55090;SDS011;40985;53.180;5.800;2023-05-07T02:33:33;33.95;;;26.83;;
55090;SDS011;40985;53.180;5.800;2023-05-07T02:36:09;31.05;;;27.33;;
55090;SDS011;40985;53.180;5.800;2023-05-07T02:38:36;31.58;;;26.73;;
55090;SDS011;40985;53.180;5.800;2023-05-07T02:41:02;35.83;;;29.15;;
55090;SDS011;40985;53.180;5.800;2023-05-07T02:43:28;34.53;;;27.63;;
55090;SDS011;40985;53.180;5.800;2023-05-07T02:46:03;35.10;;;28.70;;
55090;SDS011;40985;53.180;5.800;2023-05-07T02:48:30;34.30;;;28.27;;
55090;SDS011;40985;53.180;5.800;2023-05-07T02:50:56;32.63;;;26.95;;
55090;SDS011;40985;53.180;5.800;2023-05-07T02:53:21;34.30;;;28.52;;
55090;SDS011;40985;53.180;5.800;2023-05-07T02:55:47;32.97;;;27.67;;
55090;SDS011;40985;53.180;5.800;2023-05-07T02:58:13;33.75;;;28.23;;
55090;SDS011;40985;53.180;5.800;2023-05-07T03:00:38;34.33;;;28.42;;
55090;SDS011;40985;53.180;5.800;2023-05-07T03:03:05;36.30;;;27.85;;
55090;SDS011;40985;53.180;5.800;2023-05-07T03:05:30;32.78;;;28.17;;
55090;SDS011;40985;53.180;5.800;2023-05-07T03:07:56;34.75;;;28.02;;
55090;SDS011;40985;53.180;5.800;2023-05-07T03:10:22;35.67;;;29.08;;
55090;SDS011;40985;53.180;5.800;2023-05-07T03:12:48;31.15;;;27.42;;
55090;SDS011;40985;53.180;5.800;2023-05-07T03:15:13;35.40;;;29.02;;
55090;SDS011;40985;53.180;5.800;2023-05-07T03:17:39;33.50;;;28.70;;
55090;SDS011;40985;53.180;5.800;2023-05-07T03:20:05;33.05;;;28.05;;
55090;SDS011;40985;53.180;5.800;2023-05-07T03:22:32;37.08;;;29.08;;
55090;SDS011;40985;53.180;5.800;2023-05-07T03:24:57;32.80;;;29.00;;
55090;SDS011;40985;53.180;5.800;2023-05-07T03:27:23;34.63;;;28.70;;
55090;SDS011;40985;53.180;5.800;2023-05-07T03:29:49;34.42;;;28.85;;
55090;SDS011;40985;53.180;5.800;2023-05-07T03:32:14;32.30;;;27.55;;
55090;SDS011;40985;53.180;5.800;2023-05-07T03:34:40;39.13;;;30.15;;
55090;SDS011;40985;53.180;5.800;2023-05-07T03:37:06;37.78;;;29.95;;
55090;SDS011;40985;53.180;5.800;2023-05-07T03:39:32;36.90;;;29.95;;
55090;SDS011;40985;53.180;5.800;2023-05-07T03:41:57;37.72;;;29.95;;
55090;SDS011;40985;53.180;5.800;2023-05-07T03:44:23;37.90;;;30.52;;
55090;SDS011;40985;53.180;5.800;2023-05-07T03:46:49;36.28;;;29.60;;
55090;SDS011;40985;53.180;5.800;2023-05-07T03:49:14;37.13;;;30.75;;
55090;SDS011;40985;53.180;5.800;2023-05-07T03:51:40;37.42;;;30.85;;
55090;SDS011;40985;53.180;5.800;2023-05-07T03:54:07;36.25;;;30.05;;
55090;SDS011;40985;53.180;5.800;2023-05-07T03:56:32;36.88;;;30.30;;
55090;SDS011;40985;53.180;5.800;2023-05-07T03:58:58;36.45;;;30.63;;
55090;SDS011;40985;53.180;5.800;2023-05-07T04:01:25;34.70;;;30.10;;
55090;SDS011;40985;53.180;5.800;2023-05-07T04:03:50;33.70;;;29.55;;
55090;SDS011;40985;53.180;5.800;2023-05-07T04:06:16;39.15;;;31.23;;
55090;SDS011;40985;53.180;5.800;2023-05-07T04:08:45;40.00;;;31.02;;
55090;SDS011;40985;53.180;5.800;2023-05-07T04:11:11;39.95;;;31.48;;
55090;SDS011;40985;53.180;5.800;2023-05-07T04:13:37;36.55;;;30.85;;
55090;SDS011;40985;53.180;5.800;2023-05-07T04:16:03;42.50;;;31.67;;
55090;SDS011;40985;53.180;5.800;2023-05-07T04:18:30;40.75;;;31.95;;
55090;SDS011;40985;53.180;5.800;2023-05-07T04:20:55;38.95;;;31.15;;
55090;SDS011;40985;53.180;5.800;2023-05-07T04:23:21;40.97;;;32.50;;
55090;SDS011;40985;53.180;5.800;2023-05-07T04:25:47;40.90;;;31.48;;
55090;SDS011;40985;53.180;5.800;2023-05-07T04:28:12;39.63;;;31.48;;
55090;SDS011;40985;53.180;5.800;2023-05-07T04:30:39;41.15;;;32.78;;
55090;SDS011;40985;53.180;5.800;2023-05-07T04:33:04;44.78;;;32.72;;
55090;SDS011;40985;53.180;5.800;2023-05-07T04:35:31;37.47;;;32.50;;
55090;SDS011;40985;53.180;5.800;2023-05-07T04:37:57;41.60;;;32.80;;
55090;SDS011;40985;53.180;5.800;2023-05-07T04:40:23;42.78;;;32.97;;
55090;SDS011;40985;53.180;5.800;2023-05-07T04:42:49;39.42;;;32.28;;
55090;SDS011;40985;53.180;5.800;2023-05-07T04:45:14;41.30;;;32.50;;
55090;SDS011;40985;53.180;5.800;2023-05-07T04:47:40;41.28;;;33.20;;
55090;SDS011;40985;53.180;5.800;2023-05-07T04:50:06;42.50;;;32.58;;
55090;SDS011;40985;53.180;5.800;2023-05-07T04:52:33;38.13;;;32.03;;
55090;SDS011;40985;53.180;5.800;2023-05-07T04:54:59;48.45;;;33.25;;
55090;SDS011;40985;53.180;5.800;2023-05-07T04:57:25;41.63;;;32.50;;
55090;SDS011;40985;53.180;5.800;2023-05-07T04:59:52;43.88;;;33.30;;
55090;SDS011;40985;53.180;5.800;2023-05-07T05:02:18;46.08;;;34.28;;
55090;SDS011;40985;53.180;5.800;2023-05-07T05:04:43;44.38;;;33.53;;
55090;SDS011;40985;53.180;5.800;2023-05-07T05:07:09;50.03;;;34.88;;
55090;SDS011;40985;53.180;5.800;2023-05-07T05:09:35;46.40;;;35.60;;
55090;SDS011;40985;53.180;5.800;2023-05-07T05:12:00;45.35;;;33.90;;
55090;SDS011;40985;53.180;5.800;2023-05-07T05:14:26;48.83;;;34.67;;
55090;SDS011;40985;53.180;5.800;2023-05-07T05:16:52;47.28;;;34.88;;
55090;SDS011;40985;53.180;5.800;2023-05-07T05:19:17;46.22;;;35.15;;
55090;SDS011;40985;53.180;5.800;2023-05-07T05:21:43;46.40;;;35.35;;
55090;SDS011;40985;53.180;5.800;2023-05-07T05:24:09;45.92;;;34.97;;
55090;SDS011;40985;53.180;5.800;2023-05-07T05:26:35;47.28;;;35.97;;
55090;SDS011;40985;53.180;5.800;2023-05-07T05:29:00;50.00;;;36.58;;
55090;SDS011;40985;53.180;5.800;2023-05-07T05:31:26;48.83;;;35.70;;
55090;SDS011;40985;53.180;5.800;2023-05-07T05:33:52;51.55;;;37.47;;
55090;SDS011;40985;53.180;5.800;2023-05-07T05:36:17;46.50;;;36.33;;
55090;SDS011;40985;53.180;5.800;2023-05-07T05:38:43;47.55;;;37.03;;
55090;SDS011;40985;53.180;5.800;2023-05-07T05:41:09;47.15;;;36.25;;
55090;SDS011;40985;53.180;5.800;2023-05-07T05:43:35;51.05;;;36.20;;
55090;SDS011;40985;53.180;5.800;2023-05-07T05:46:01;48.20;;;35.80;;
55090;SDS011;40985;53.180;5.800;2023-05-07T05:48:28;48.13;;;35.53;;
55090;SDS011;40985;53.180;5.800;2023-05-07T05:50:54;49.50;;;35.38;;
55090;SDS011;40985;53.180;5.800;2023-05-07T05:53:20;53.00;;;35.88;;
55090;SDS011;40985;53.180;5.800;2023-05-07T05:55:45;49.83;;;37.03;;
55090;SDS011;40985;53.180;5.800;2023-05-07T05:58:11;50.50;;;35.75;;
55090;SDS011;40985;53.180;5.800;2023-05-07T06:00:37;50.88;;;37.08;;
55090;SDS011;40985;53.180;5.800;2023-05-07T06:03:03;49.30;;;35.17;;
55090;SDS011;40985;53.180;5.800;2023-05-07T06:05:28;49.15;;;36.30;;
55090;SDS011;40985;53.180;5.800;2023-05-07T06:07:54;49.38;;;37.85;;
55090;SDS011;40985;53.180;5.800;2023-05-07T06:10:20;50.00;;;35.80;;
55090;SDS011;40985;53.180;5.800;2023-05-07T06:12:45;51.85;;;36.75;;
55090;SDS011;40985;53.180;5.800;2023-05-07T06:15:11;49.85;;;36.50;;
55090;SDS011;40985;53.180;5.800;2023-05-07T06:17:37;48.83;;;35.80;;
55090;SDS011;40985;53.180;5.800;2023-05-07T06:20:03;45.30;;;35.78;;
55090;SDS011;40985;53.180;5.800;2023-05-07T06:22:29;44.80;;;35.22;;
55090;SDS011;40985;53.180;5.800;2023-05-07T06:24:54;44.83;;;34.75;;
55090;SDS011;40985;53.180;5.800;2023-05-07T06:27:20;41.22;;;33.05;;
55090;SDS011;40985;53.180;5.800;2023-05-07T06:29:47;42.38;;;33.22;;
55090;SDS011;40985;53.180;5.800;2023-05-07T06:32:13;41.28;;;32.20;;
55090;SDS011;40985;53.180;5.800;2023-05-07T06:34:39;38.92;;;31.60;;
55090;SDS011;40985;53.180;5.800;2023-05-07T06:37:05;41.83;;;32.05;;
55090;SDS011;40985;53.180;5.800;2023-05-07T06:39:32;39.67;;;32.72;;
55090;SDS011;40985;53.180;5.800;2023-05-07T06:41:59;39.28;;;31.70;;
55090;SDS011;40985;53.180;5.800;2023-05-07T06:44:26;42.85;;;34.10;;
55090;SDS011;40985;53.180;5.800;2023-05-07T06:46:51;40.03;;;31.90;;
55090;SDS011;40985;53.180;5.800;2023-05-07T06:49:17;37.80;;;30.70;;
55090;SDS011;40985;53.180;5.800;2023-05-07T06:51:43;37.90;;;30.77;;
55090;SDS011;40985;53.180;5.800;2023-05-07T06:54:09;36.17;;;30.08;;
55090;SDS011;40985;53.180;5.800;2023-05-07T06:56:34;38.28;;;29.85;;
55090;SDS011;40985;53.180;5.800;2023-05-07T06:59:01;38.63;;;30.52;;
55090;SDS011;40985;53.180;5.800;2023-05-07T07:01:27;39.45;;;31.15;;
55090;SDS011;40985;53.180;5.800;2023-05-07T07:03:53;34.35;;;28.63;;
55090;SDS011;40985;53.180;5.800;2023-05-07T07:06:19;33.83;;;28.80;;
55090;SDS011;40985;53.180;5.800;2023-05-07T07:08:45;34.70;;;29.10;;
55090;SDS011;40985;53.180;5.800;2023-05-07T07:11:10;31.92;;;28.48;;
55090;SDS011;40985;53.180;5.800;2023-05-07T07:13:36;34.35;;;28.48;;
55090;SDS011;40985;53.180;5.800;2023-05-07T07:16:02;31.52;;;27.13;;
55090;SDS011;40985;53.180;5.800;2023-05-07T07:18:28;32.42;;;27.73;;
55090;SDS011;40985;53.180;5.800;2023-05-07T07:20:53;30.83;;;26.83;;
55090;SDS011;40985;53.180;5.800;2023-05-07T07:23:19;30.55;;;27.10;;
55090;SDS011;40985;53.180;5.800;2023-05-07T07:25:45;31.85;;;28.02;;
55090;SDS011;40985;53.180;5.800;2023-05-07T07:28:11;29.35;;;26.33;;
55090;SDS011;40985;53.180;5.800;2023-05-07T07:30:37;30.00;;;26.88;;
55090;SDS011;40985;53.180;5.800;2023-05-07T07:33:03;29.20;;;25.60;;
55090;SDS011;40985;53.180;5.800;2023-05-07T07:35:30;29.58;;;26.27;;
55090;SDS011;40985;53.180;5.800;2023-05-07T07:37:57;28.58;;;25.50;;
55090;SDS011;40985;53.180;5.800;2023-05-07T07:40:23;29.95;;;26.48;;
55090;SDS011;40985;53.180;5.800;2023-05-07T07:42:50;28.42;;;25.10;;
55090;SDS011;40985;53.180;5.800;2023-05-07T07:45:18;27.88;;;24.92;;
55090;SDS011;40985;53.180;5.800;2023-05-07T07:47:44;27.77;;;24.83;;
55090;SDS011;40985;53.180;5.800;2023-05-07T07:50:10;28.45;;;25.45;;
55090;SDS011;40985;53.180;5.800;2023-05-07T07:52:36;28.05;;;25.17;;
55090;SDS011;40985;53.180;5.800;2023-05-07T07:55:02;26.58;;;23.63;;
55090;SDS011;40985;53.180;5.800;2023-05-07T07:57:28;27.02;;;24.08;;
55090;SDS011;40985;53.180;5.800;2023-05-07T07:59:54;25.90;;;23.20;;
55090;SDS011;40985;53.180;5.800;2023-05-07T08:02:19;27.00;;;23.77;;
55090;SDS011;40985;53.180;5.800;2023-05-07T08:04:45;26.90;;;23.98;;
55090;SDS011;40985;53.180;5.800;2023-05-07T08:07:11;26.58;;;23.05;;
55090;SDS011;40985;53.180;5.800;2023-05-07T08:09:37;25.45;;;22.35;;
55090;SDS011;40985;53.180;5.800;2023-05-07T08:12:03;25.40;;;22.23;;
55090;SDS011;40985;53.180;5.800;2023-05-07T08:14:30;25.08;;;22.55;;
55090;SDS011;40985;53.180;5.800;2023-05-07T08:16:55;23.83;;;21.25;;
55090;SDS011;40985;53.180;5.800;2023-05-07T08:19:21;23.40;;;20.95;;
55090;SDS011;40985;53.180;5.800;2023-05-07T08:21:48;26.80;;;22.63;;
55090;SDS011;40985;53.180;5.800;2023-05-07T08:24:14;26.35;;;21.42;;
55090;SDS011;40985;53.180;5.800;2023-05-07T08:26:40;25.23;;;22.10;;
55090;SDS011;40985;53.180;5.800;2023-05-07T08:29:06;25.77;;;20.90;;
55090;SDS011;40985;53.180;5.800;2023-05-07T08:31:33;24.33;;;21.45;;
55090;SDS011;40985;53.180;5.800;2023-05-07T08:33:59;23.48;;;21.08;;
55090;SDS011;40985;53.180;5.800;2023-05-07T08:36:25;22.80;;;20.55;;
55090;SDS011;40985;53.180;5.800;2023-05-07T08:38:51;22.63;;;20.23;;
55090;SDS011;40985;53.180;5.800;2023-05-07T08:41:17;22.67;;;20.38;;
55090;SDS011;40985;53.180;5.800;2023-05-07T08:43:48;22.70;;;20.38;;
55090;SDS011;40985;53.180;5.800;2023-05-07T08:46:19;23.45;;;21.15;;
55090;SDS011;40985;53.180;5.800;2023-05-07T08:48:49;23.63;;;20.80;;
55090;SDS011;40985;53.180;5.800;2023-05-07T08:51:16;22.25;;;19.95;;
55090;SDS011;40985;53.180;5.800;2023-05-07T08:53:43;21.85;;;19.73;;
55090;SDS011;40985;53.180;5.800;2023-05-07T08:56:10;22.30;;;20.02;;
55090;SDS011;40985;53.180;5.800;2023-05-07T08:58:37;22.90;;;20.60;;
55090;SDS011;40985;53.180;5.800;2023-05-07T09:01:03;24.10;;;21.50;;
55090;SDS011;40985;53.180;5.800;2023-05-07T09:03:38;22.80;;;20.23;;
55090;SDS011;40985;53.180;5.800;2023-05-07T09:06:04;23.42;;;20.90;;
55090;SDS011;40985;53.180;5.800;2023-05-07T09:08:32;23.02;;;20.63;;
55090;SDS011;40985;53.180;5.800;2023-05-07T09:10:58;23.02;;;20.65;;
55090;SDS011;40985;53.180;5.800;2023-05-07T09:13:24;24.10;;;20.65;;
55090;SDS011;40985;53.180;5.800;2023-05-07T09:15:52;23.42;;;21.02;;
55090;SDS011;40985;53.180;5.800;2023-05-07T09:18:17;24.00;;;21.20;;
55090;SDS011;40985;53.180;5.800;2023-05-07T09:20:43;23.15;;;20.80;;
55090;SDS011;40985;53.180;5.800;2023-05-07T09:23:09;24.35;;;21.77;;
55090;SDS011;40985;53.180;5.800;2023-05-07T09:25:35;23.92;;;21.42;;
55090;SDS011;40985;53.180;5.800;2023-05-07T09:28:01;23.48;;;21.10;;
55090;SDS011;40985;53.180;5.800;2023-05-07T09:30:29;23.65;;;21.00;;
55090;SDS011;40985;53.180;5.800;2023-05-07T09:32:56;23.85;;;21.17;;
55090;SDS011;40985;53.180;5.800;2023-05-07T09:35:24;23.70;;;21.20;;
55090;SDS011;40985;53.180;5.800;2023-05-07T09:37:55;22.65;;;20.38;;
55090;SDS011;40985;53.180;5.800;2023-05-07T09:42:48;22.08;;;19.92;;
55090;SDS011;40985;53.180;5.800;2023-05-07T09:45:14;24.83;;;21.05;;
55090;SDS011;40985;53.180;5.800;2023-05-07T09:47:50;23.30;;;21.08;;
55090;SDS011;40985;53.180;5.800;2023-05-07T09:50:19;22.15;;;20.00;;
55090;SDS011;40985;53.180;5.800;2023-05-07T09:52:51;21.43;;;19.30;;
55090;SDS011;40985;53.180;5.800;2023-05-07T09:55:17;22.50;;;20.27;;
55090;SDS011;40985;53.180;5.800;2023-05-07T09:57:44;22.38;;;20.08;;
55090;SDS011;40985;53.180;5.800;2023-05-07T10:00:11;21.88;;;19.58;;
55090;SDS011;40985;53.180;5.800;2023-05-07T10:02:38;21.60;;;19.48;;
55090;SDS011;40985;53.180;5.800;2023-05-07T10:05:12;22.33;;;20.05;;
55090;SDS011;40985;53.180;5.800;2023-05-07T10:07:39;22.42;;;20.17;;
55090;SDS011;40985;53.180;5.800;2023-05-07T10:10:05;22.23;;;20.08;;
55090;SDS011;40985;53.180;5.800;2023-05-07T10:12:32;23.70;;;21.15;;
55090;SDS011;40985;53.180;5.800;2023-05-07T10:15:04;22.77;;;19.95;;
55090;SDS011;40985;53.180;5.800;2023-05-07T10:17:34;23.52;;;20.00;;
55090;SDS011;40985;53.180;5.800;2023-05-07T10:20:04;21.83;;;19.70;;
55090;SDS011;40985;53.180;5.800;2023-05-07T10:22:38;23.35;;;20.95;;
55090;SDS011;40985;53.180;5.800;2023-05-07T10:25:18;20.83;;;18.80;;
55090;SDS011;40985;53.180;5.800;2023-05-07T10:27:47;22.50;;;20.27;;
55090;SDS011;40985;53.180;5.800;2023-05-07T10:30:26;23.27;;;20.77;;
55090;SDS011;40985;53.180;5.800;2023-05-07T10:33:10;21.60;;;19.42;;
55090;SDS011;40985;53.180;5.800;2023-05-07T10:35:39;22.05;;;19.95;;
55090;SDS011;40985;53.180;5.800;2023-05-07T10:38:07;22.83;;;20.60;;
55090;SDS011;40985;53.180;5.800;2023-05-07T10:40:33;22.17;;;20.08;;
55090;SDS011;40985;53.180;5.800;2023-05-07T10:43:00;21.95;;;19.65;;
55090;SDS011;40985;53.180;5.800;2023-05-07T10:45:29;22.00;;;19.75;;
55090;SDS011;40985;53.180;5.800;2023-05-07T10:50:40;22.02;;;19.83;;
55090;SDS011;40985;53.180;5.800;2023-05-07T10:55:46;22.45;;;20.08;;
55090;SDS011;40985;53.180;5.800;2023-05-07T10:58:22;20.70;;;18.70;;
55090;SDS011;40985;53.180;5.800;2023-05-07T11:01:01;20.33;;;18.42;;
55090;SDS011;40985;53.180;5.800;2023-05-07T11:03:27;22.48;;;19.63;;
55090;SDS011;40985;53.180;5.800;2023-05-07T11:09:09;22.17;;;19.33;;
55090;SDS011;40985;53.180;5.800;2023-05-07T11:11:47;20.08;;;18.08;;
55090;SDS011;40985;53.180;5.800;2023-05-07T11:15:02;22.45;;;20.05;;
55090;SDS011;40985;53.180;5.800;2023-05-07T11:17:09;22.42;;;19.75;;
55090;SDS011;40985;53.180;5.800;2023-05-07T11:19:57;20.98;;;18.98;;
55090;SDS011;40985;53.180;5.800;2023-05-07T11:25:00;21.77;;;19.58;;
55090;SDS011;40985;53.180;5.800;2023-05-07T11:27:26;20.85;;;18.75;;
55090;SDS011;40985;53.180;5.800;2023-05-07T11:29:52;20.70;;;18.55;;
55090;SDS011;40985;53.180;5.800;2023-05-07T11:32:27;20.90;;;18.70;;
55090;SDS011;40985;53.180;5.800;2023-05-07T11:34:55;20.98;;;18.95;;
55090;SDS011;40985;53.180;5.800;2023-05-07T11:37:22;21.88;;;19.73;;
55090;SDS011;40985;53.180;5.800;2023-05-07T11:39:49;21.45;;;19.30;;
55090;SDS011;40985;53.180;5.800;2023-05-07T11:44:53;21.65;;;19.50;;
55090;SDS011;40985;53.180;5.800;2023-05-07T11:47:18;22.42;;;20.38;;
55090;SDS011;40985;53.180;5.800;2023-05-07T11:49:46;21.67;;;19.50;;
55090;SDS011;40985;53.180;5.800;2023-05-07T11:52:16;22.48;;;20.30;;
55090;SDS011;40985;53.180;5.800;2023-05-07T11:54:53;19.67;;;17.88;;
55090;SDS011;40985;53.180;5.800;2023-05-07T11:57:23;20.15;;;18.15;;
55090;SDS011;40985;53.180;5.800;2023-05-07T11:59:59;21.25;;;19.15;;
55090;SDS011;40985;53.180;5.800;2023-05-07T12:02:27;19.88;;;17.85;;
55090;SDS011;40985;53.180;5.800;2023-05-07T12:04:53;20.00;;;18.00;;
55090;SDS011;40985;53.180;5.800;2023-05-07T12:07:20;19.83;;;17.92;;
55090;SDS011;40985;53.180;5.800;2023-05-07T12:09:46;20.55;;;18.17;;
55090;SDS011;40985;53.180;5.800;2023-05-07T12:12:12;22.67;;;20.48;;
55090;SDS011;40985;53.180;5.800;2023-05-07T12:14:42;21.08;;;18.98;;
55090;SDS011;40985;53.180;5.800;2023-05-07T12:17:10;20.35;;;18.45;;
55090;SDS011;40985;53.180;5.800;2023-05-07T12:19:38;21.85;;;19.58;;
55090;SDS011;40985;53.180;5.800;2023-05-07T12:22:05;19.67;;;17.77;;
55090;SDS011;40985;53.180;5.800;2023-05-07T12:24:48;19.60;;;17.60;;
55090;SDS011;40985;53.180;5.800;2023-05-07T12:27:22;19.70;;;17.83;;
55090;SDS011;40985;53.180;5.800;2023-05-07T12:29:48;19.15;;;17.27;;
55090;SDS011;40985;53.180;5.800;2023-05-07T12:32:15;20.00;;;18.05;;
55090;SDS011;40985;53.180;5.800;2023-05-07T12:34:42;18.63;;;16.92;;
55090;SDS011;40985;53.180;5.800;2023-05-07T12:37:08;17.58;;;15.98;;
55090;SDS011;40985;53.180;5.800;2023-05-07T12:39:34;16.83;;;15.30;;
55090;SDS011;40985;53.180;5.800;2023-05-07T12:41:59;18.25;;;16.55;;
55090;SDS011;40985;53.180;5.800;2023-05-07T12:44:28;18.13;;;16.42;;
55090;SDS011;40985;53.180;5.800;2023-05-07T12:46:58;17.67;;;15.98;;
55090;SDS011;40985;53.180;5.800;2023-05-07T12:49:26;16.85;;;15.13;;
55090;SDS011;40985;53.180;5.800;2023-05-07T12:51:53;16.48;;;15.07;;
55090;SDS011;40985;53.180;5.800;2023-05-07T12:54:29;16.63;;;14.95;;
55090;SDS011;40985;53.180;5.800;2023-05-07T12:57:02;17.70;;;15.05;;
55090;SDS011;40985;53.180;5.800;2023-05-07T12:59:40;15.38;;;13.98;;
55090;SDS011;40985;53.180;5.800;2023-05-07T13:02:07;14.15;;;12.95;;
55090;SDS011;40985;53.180;5.800;2023-05-07T13:04:33;15.20;;;13.70;;
55090;SDS011;40985;53.180;5.800;2023-05-07T13:07:00;16.27;;;14.70;;
55090;SDS011;40985;53.180;5.800;2023-05-07T13:09:26;14.43;;;13.18;;
55090;SDS011;40985;53.180;5.800;2023-05-07T13:11:53;18.33;;;15.18;;
55090;SDS011;40985;53.180;5.800;2023-05-07T13:14:18;14.77;;;13.43;;
55090;SDS011;40985;53.180;5.800;2023-05-07T13:16:46;15.05;;;13.65;;
55090;SDS011;40985;53.180;5.800;2023-05-07T13:19:12;14.23;;;12.85;;
55090;SDS011;40985;53.180;5.800;2023-05-07T13:21:38;13.65;;;12.40;;
55090;SDS011;40985;53.180;5.800;2023-05-07T13:24:03;14.68;;;13.25;;
55090;SDS011;40985;53.180;5.800;2023-05-07T13:26:30;15.18;;;13.82;;
55090;SDS011;40985;53.180;5.800;2023-05-07T13:28:56;14.70;;;13.20;;
55090;SDS011;40985;53.180;5.800;2023-05-07T13:31:22;15.55;;;14.15;;
55090;SDS011;40985;53.180;5.800;2023-05-07T13:33:48;13.55;;;12.48;;
55090;SDS011;40985;53.180;5.800;2023-05-07T13:36:14;14.90;;;13.43;;
55090;SDS011;40985;53.180;5.800;2023-05-07T13:38:40;14.20;;;12.98;;
55090;SDS011;40985;53.180;5.800;2023-05-07T13:41:05;15.70;;;14.02;;
55090;SDS011;40985;53.180;5.800;2023-05-07T13:43:31;14.35;;;13.10;;
55090;SDS011;40985;53.180;5.800;2023-05-07T13:45:58;14.82;;;13.60;;
55090;SDS011;40985;53.180;5.800;2023-05-07T13:48:25;14.52;;;13.32;;
55090;SDS011;40985;53.180;5.800;2023-05-07T13:50:50;14.68;;;13.48;;
55090;SDS011;40985;53.180;5.800;2023-05-07T13:53:16;16.15;;;14.68;;
55090;SDS011;40985;53.180;5.800;2023-05-07T13:55:43;14.30;;;13.07;;
55090;SDS011;40985;53.180;5.800;2023-05-07T13:58:09;14.68;;;13.38;;
55090;SDS011;40985;53.180;5.800;2023-05-07T14:00:36;14.05;;;12.77;;
55090;SDS011;40985;53.180;5.800;2023-05-07T14:03:01;14.23;;;13.05;;
55090;SDS011;40985;53.180;5.800;2023-05-07T14:05:28;13.90;;;12.55;;
55090;SDS011;40985;53.180;5.800;2023-05-07T14:07:54;14.23;;;12.93;;
55090;SDS011;40985;53.180;5.800;2023-05-07T14:10:20;12.70;;;11.70;;
55090;SDS011;40985;53.180;5.800;2023-05-07T14:12:46;14.00;;;12.70;;
55090;SDS011;40985;53.180;5.800;2023-05-07T14:15:12;13.32;;;12.13;;
55090;SDS011;40985;53.180;5.800;2023-05-07T14:17:38;12.32;;;11.13;;
55090;SDS011;40985;53.180;5.800;2023-05-07T14:20:04;12.65;;;11.45;;
55090;SDS011;40985;53.180;5.800;2023-05-07T14:22:31;12.55;;;11.45;;
55090;SDS011;40985;53.180;5.800;2023-05-07T14:24:57;12.45;;;11.45;;
55090;SDS011;40985;53.180;5.800;2023-05-07T14:27:23;15.07;;;13.77;;
55090;SDS011;40985;53.180;5.800;2023-05-07T14:29:48;12.38;;;11.38;;
55090;SDS011;40985;53.180;5.800;2023-05-07T14:32:19;13.10;;;11.88;;
55090;SDS011;40985;53.180;5.800;2023-05-07T14:34:45;12.07;;;11.05;;
55090;SDS011;40985;53.180;5.800;2023-05-07T14:37:11;12.32;;;11.13;;
55090;SDS011;40985;53.180;5.800;2023-05-07T14:39:37;13.90;;;12.38;;